Terminal Aerodrome Forecast
Issued by NWS Cleveland, OH

Home | Current Version | Previous Version | Text Only | Print | Product List | Glossary Off
Versions: 1 2 3 4 5 6 7 8 9 10 11 12 13

047
FTUS41 KCLE 220527
TAFERI
TAF
KERI 220527Z 2206/2306 16004KT P6SM SCT250
     FM221600 34005KT P6SM FEW040 SCT250
     FM230100 15002KT P6SM FEW250=

USA.gov is the U.S. government's official web portal to all federal, state and local government web resources and services.